Northwest Stormpetrel — VNVF — position and weather

sailwx.info

Track history (hours):
 
Tides and Currents Weather Stations Pressure Air Temp Water Temp Dewpoint Dewpoint Depression Visibility Wind Speed Wind Dir Waves Ship Positions

Northwest Stormpetrel

Last reported at 2017-Nov-20 00:20 UTC. Time now 2017-Nov-21 21:02 UTC.
Position S 16°59' E 118°44'.

Length 272 m; beam 47.2 m; draft 11.4 m.

Type: Ship (hazmat cat A). MMSI: 503009000.

Date/timePositionNaut miles runAvg speedWind from/ knotsBaromVisibWave heightAir tempDewpointWater temp
2017-Nov-20 00:20S 16°59' E 118°44'  
2017-Nov-17 08:00S 02°48' E 126°00'36714.7 180 / 71004.210.8 28.525.030.0
2017-Nov-16 07:00N 03°18' E 126°24'42017.5 300 / 41005.510.8 29.523.830.0
2017-Nov-15 07:00N 10°06' E 128°06'40717.0 030 / 121006.910.8 32.025.730.0
2017-Nov-14 07:00N 16°30' E 130°24'39216.3 110 / 41008.910.8 29.029.030.0
2017-Nov-13 07:00N 22°42' E 132°36'68816.3 110 / 141011.010.8 28.028.028.0
2017-Nov-11 12:42N 33°59' E 134°55'511.2
2017-Nov-11 12:17N 34°04' E 134°56'414.4
2017-Nov-11 12:00N 34°08' E 134°57'612.5
2017-Nov-11 11:30N 34°14' E 134°58'813.9
2017-Nov-11 10:57N 34°22' E 135°00'714.9
2017-Nov-11 10:29N 34°28' E 135°04'713.9
2017-Nov-11 10:00N 34°34' E 135°08'3 5.3
2017-Nov-11 09:30N 34°35' E 135°05'510.2
2017-Nov-11 09:00N 34°37' E 134°60'713.5
2017-Nov-11 08:30N 34°35' E 134°52'612.7
2017-Nov-11 08:00N 34°33' E 134°45'812.5
2017-Nov-11 07:24N 34°40' E 134°42'2 0.1
2017-Nov-10 04:42N 34°41' E 134°41'411.1
2017-Nov-10 04:18N 34°37' E 134°41'411.4
2017-Nov-10 03:59N 34°34' E 134°43'713.7
2017-Nov-10 03:30N 34°35' E 134°51'914.2
2017-Nov-10 02:54N 34°37' E 135°01'512.3
2017-Nov-10 02:30N 34°35' E 135°06'2 5.1
2017-Nov-10 02:00N 34°33' E 135°08'5 9.3
2017-Nov-10 01:30N 34°29' E 135°05'612.4
2017-Nov-10 01:00N 34°23' E 135°02'714.0
2017-Nov-10 00:30N 34°17' E 134°59'  
Track history (hours):
 
Tides and Currents Weather Stations Pressure Air Temp Water Temp Dewpoint Dewpoint Depression Visibility Wind Speed Wind Dir Waves Ship Positions

Northwest Stormpetrel

Last reported at 2017-Nov-20 00:20 UTC. Time now 2017-Nov-21 21:02 UTC.
Position S 16°59' E 118°44'.

Length 272 m; beam 47.2 m; draft 11.4 m.

Type: Ship (hazmat cat A). MMSI: 503009000.

Date/timePositionNaut miles runAvg speedWind from/ knotsBaromVisibWave heightAir tempDewpointWater temp
2017-Nov-20 00:20S 16°59' E 118°44'  
2017-Nov-17 08:00S 02°48' E 126°00'36714.7 180 / 71004.210.8 28.525.030.0
2017-Nov-16 07:00N 03°18' E 126°24'42017.5 300 / 41005.510.8 29.523.830.0
2017-Nov-15 07:00N 10°06' E 128°06'40717.0 030 / 121006.910.8 32.025.730.0
2017-Nov-14 07:00N 16°30' E 130°24'39216.3 110 / 41008.910.8 29.029.030.0
2017-Nov-13 07:00N 22°42' E 132°36'68816.3 110 / 141011.010.8 28.028.028.0
2017-Nov-11 12:42N 33°59' E 134°55'511.2
2017-Nov-11 12:17N 34°04' E 134°56'414.4
2017-Nov-11 12:00N 34°08' E 134°57'612.5
2017-Nov-11 11:30N 34°14' E 134°58'813.9
2017-Nov-11 10:57N 34°22' E 135°00'714.9
2017-Nov-11 10:29N 34°28' E 135°04'713.9
2017-Nov-11 10:00N 34°34' E 135°08'3 5.3
2017-Nov-11 09:30N 34°35' E 135°05'510.2
2017-Nov-11 09:00N 34°37' E 134°60'713.5
2017-Nov-11 08:30N 34°35' E 134°52'612.7
2017-Nov-11 08:00N 34°33' E 134°45'812.5
2017-Nov-11 07:24N 34°40' E 134°42'2 0.1
2017-Nov-10 04:42N 34°41' E 134°41'411.1
2017-Nov-10 04:18N 34°37' E 134°41'411.4
2017-Nov-10 03:59N 34°34' E 134°43'713.7
2017-Nov-10 03:30N 34°35' E 134°51'914.2
2017-Nov-10 02:54N 34°37' E 135°01'512.3
2017-Nov-10 02:30N 34°35' E 135°06'2 5.1
2017-Nov-10 02:00N 34°33' E 135°08'5 9.3
2017-Nov-10 01:30N 34°29' E 135°05'612.4
2017-Nov-10 01:00N 34°23' E 135°02'714.0
2017-Nov-10 00:30N 34°17' E 134°59'  

Dump ship's entire track history